createdAt,value
2022-08-24T00:02:01.277Z,17.30
2022-08-24T00:04:32.083Z,17.20
2022-08-24T00:07:02.101Z,17.20
2022-08-24T00:09:31.423Z,17.10
2022-08-24T00:11:59.808Z,17.10
2022-08-24T00:14:28.242Z,17.10
2022-08-24T00:16:58.171Z,17.10
2022-08-24T00:19:26.960Z,17.10
2022-08-24T00:21:55.646Z,17.00
2022-08-24T00:24:24.295Z,17.00
2022-08-24T00:26:54.036Z,17.00
2022-08-24T00:29:23.578Z,17.00
2022-08-24T00:31:51.994Z,17.00
2022-08-24T00:34:21.845Z,16.90
2022-08-24T00:36:50.284Z,16.80
2022-08-24T00:39:18.948Z,16.80
2022-08-24T00:41:50.069Z,16.70
2022-08-24T00:44:21.028Z,16.60
2022-08-24T00:46:58.159Z,16.60
2022-08-24T00:49:37.862Z,16.50
2022-08-24T00:52:14.833Z,16.40
2022-08-24T00:54:46.595Z,16.40
2022-08-24T00:57:21.224Z,16.30
2022-08-24T00:59:55.313Z,16.30
2022-08-24T01:02:28.690Z,16.20
2022-08-24T01:05:02.158Z,16.20
2022-08-24T01:07:32.513Z,16.20
2022-08-24T01:10:06.296Z,16.20
2022-08-24T01:12:36.872Z,16.10
2022-08-24T01:15:09.851Z,16.10
2022-08-24T01:17:56.777Z,16.00
2022-08-24T01:20:26.987Z,16.00
2022-08-24T01:23:07.146Z,15.90
2022-08-24T01:25:40.359Z,15.90
2022-08-24T01:28:23.382Z,15.90
2022-08-24T01:30:55.822Z,15.80
2022-08-24T01:33:27.189Z,15.80
2022-08-24T01:36:01.008Z,15.80
2022-08-24T01:38:31.483Z,15.80
2022-08-24T01:41:04.797Z,15.70
2022-08-24T01:43:35.186Z,15.70
2022-08-24T01:46:08.074Z,15.70
2022-08-24T01:48:36.370Z,15.60
2022-08-24T01:51:05.446Z,15.60
2022-08-24T01:53:33.946Z,15.60
2022-08-24T01:56:04.369Z,15.60
2022-08-24T01:58:33.255Z,15.60
2022-08-24T02:01:01.661Z,15.50
2022-08-24T02:03:33.864Z,15.50
2022-08-24T02:06:05.008Z,15.50
2022-08-24T02:08:36.511Z,15.40
2022-08-24T02:11:07.327Z,15.40
2022-08-24T02:13:37.539Z,15.40
2022-08-24T02:16:07.056Z,15.30
2022-08-24T02:18:37.578Z,15.30
2022-08-24T02:21:08.642Z,15.20
2022-08-24T02:23:37.837Z,15.20
2022-08-24T02:26:08.942Z,15.10
2022-08-24T02:28:38.110Z,15.10
2022-08-24T02:31:07.727Z,15.10
2022-08-24T02:33:37.807Z,15.00
2022-08-24T02:36:13.565Z,14.90
2022-08-24T02:38:55.511Z,14.90
2022-08-24T02:41:26.252Z,14.90
2022-08-24T02:43:57.223Z,14.80
2022-08-24T02:46:28.718Z,14.80
2022-08-24T02:49:10.591Z,14.80
2022-08-24T02:51:45.643Z,14.70
2022-08-24T02:54:19.907Z,14.70
2022-08-24T02:56:52.673Z,14.60
2022-08-24T02:59:22.330Z,14.60
2022-08-24T03:01:51.500Z,14.60
2022-08-24T03:04:22.547Z,14.50
2022-08-24T03:06:50.949Z,14.50
2022-08-24T03:09:19.365Z,14.40
2022-08-24T03:11:47.642Z,14.40
2022-08-24T03:14:19.142Z,14.40
2022-08-24T03:16:47.608Z,14.40
2022-08-24T03:19:16.258Z,14.30
2022-08-24T03:21:46.250Z,14.30
2022-08-24T03:24:15.046Z,14.20
2022-08-24T03:26:46.305Z,14.20
2022-08-24T03:29:15.776Z,14.20
2022-08-24T03:31:47.260Z,14.10
2022-08-24T03:34:16.062Z,14.10
2022-08-24T03:36:47.215Z,14.10
2022-08-24T03:39:17.931Z,14.00
2022-08-24T03:41:48.603Z,14.00
2022-08-24T03:44:20.127Z,14.00
2022-08-24T03:46:53.291Z,14.00
2022-08-24T03:49:23.563Z,13.90
2022-08-24T03:51:52.931Z,13.90
2022-08-24T03:54:24.103Z,13.90
2022-08-24T03:56:52.564Z,13.90
2022-08-24T03:59:21.060Z,13.90
2022-08-24T04:01:55.994Z,13.80
2022-08-24T04:04:24.806Z,13.80
2022-08-24T04:06:53.060Z,13.80
2022-08-24T04:09:21.949Z,13.70
2022-08-24T04:11:52.072Z,13.70
2022-08-24T04:14:27.204Z,13.60
2022-08-24T04:17:06.692Z,13.60
2022-08-24T04:19:57.322Z,13.60
2022-08-24T04:22:34.040Z,13.60
2022-08-24T04:25:02.509Z,13.60
2022-08-24T04:27:37.491Z,13.60
2022-08-24T04:30:07.112Z,13.60
2022-08-24T04:32:52.744Z,13.60
2022-08-24T04:35:21.306Z,13.60
2022-08-24T04:37:50.056Z,13.60
2022-08-24T04:40:19.490Z,13.60
2022-08-24T04:42:50.761Z,13.60
2022-08-24T04:45:19.285Z,13.60
2022-08-24T04:47:47.704Z,13.60
2022-08-24T04:50:17.596Z,13.60
2022-08-24T04:52:52.753Z,13.60
2022-08-24T04:55:21.336Z,13.60
2022-08-24T04:57:50.911Z,13.60
2022-08-24T05:00:19.835Z,13.60
2022-08-24T05:02:49.478Z,13.60
2022-08-24T05:05:19.544Z,13.70
2022-08-24T05:07:47.895Z,13.80
2022-08-24T05:10:16.556Z,13.80
2022-08-24T05:12:45.367Z,13.90
2022-08-24T05:15:13.967Z,14.00
2022-08-24T05:17:50.317Z,14.00
2022-08-24T05:20:21.660Z,14.10
2022-08-24T05:22:55.965Z,14.20
2022-08-24T05:25:25.203Z,14.30
2022-08-24T05:27:53.557Z,14.50
2022-08-24T05:30:22.330Z,14.60
2022-08-24T05:32:50.844Z,14.70
2022-08-24T05:35:22.435Z,14.80
2022-08-24T05:37:52.122Z,14.90
2022-08-24T05:40:23.533Z,15.10
2022-08-24T05:42:56.467Z,15.20
2022-08-24T05:45:24.832Z,15.30
2022-08-24T05:47:53.390Z,15.50
2022-08-24T05:50:55.415Z,15.60
2022-08-24T05:53:25.714Z,15.80
2022-08-24T05:55:54.529Z,15.90
2022-08-24T05:58:30.617Z,16.00
2022-08-24T06:01:08.315Z,16.20
2022-08-24T06:03:36.616Z,16.30
2022-08-24T06:06:09.981Z,16.50
2022-08-24T06:08:42.225Z,16.60
2022-08-24T06:11:12.973Z,16.90
2022-08-24T06:13:41.468Z,17.10
2022-08-24T06:16:22.084Z,17.20
2022-08-24T06:18:53.306Z,17.40
2022-08-24T06:21:28.285Z,17.60
2022-08-24T06:23:59.444Z,17.70
2022-08-24T06:26:50.084Z,17.90
2022-08-24T06:29:20.092Z,18.00
2022-08-24T06:31:54.277Z,18.10
2022-08-24T06:34:26.049Z,18.30
2022-08-24T06:36:56.164Z,18.40
2022-08-24T06:39:32.071Z,18.60
2022-08-24T06:42:01.505Z,18.70
2022-08-24T06:44:31.999Z,18.90
2022-08-24T06:47:14.147Z,19.00
2022-08-24T06:49:42.712Z,19.20
2022-08-24T06:52:12.956Z,19.30
2022-08-24T06:54:41.371Z,19.50
2022-08-24T06:57:10.153Z,19.70
2022-08-24T06:59:38.546Z,19.90
2022-08-24T07:02:09.124Z,20.10
2022-08-24T07:04:38.391Z,20.30
2022-08-24T07:07:27.014Z,20.50
2022-08-24T07:09:55.782Z,20.70
2022-08-24T07:12:25.385Z,20.90
2022-08-24T07:14:53.832Z,21.20
2022-08-24T07:17:22.926Z,21.50
2022-08-24T07:19:51.435Z,21.80
2022-08-24T07:22:41.121Z,22.00
2022-08-24T07:25:12.163Z,22.40
2022-08-24T07:27:40.952Z,22.70
2022-08-24T07:30:26.305Z,23.10
2022-08-24T07:32:58.707Z,23.50
2022-08-24T07:35:31.040Z,24.10
2022-08-24T07:38:01.363Z,24.80
2022-08-24T07:40:36.479Z,25.50
2022-08-24T07:43:17.646Z,26.20
2022-08-24T07:45:46.051Z,26.80
2022-08-24T07:48:14.477Z,27.20
2022-08-24T07:50:46.802Z,27.50
2022-08-24T07:53:20.754Z,27.90
2022-08-24T07:55:56.519Z,28.30
2022-08-24T07:58:26.056Z,28.70
2022-08-24T08:00:54.652Z,29.20
2022-08-24T08:03:24.896Z,29.80
2022-08-24T08:05:58.352Z,30.30
2022-08-24T08:08:29.766Z,30.90
2022-08-24T08:10:58.453Z,31.50
2022-08-24T08:13:26.981Z,32.00
2022-08-24T08:15:59.413Z,32.40
2022-08-24T08:18:29.387Z,32.80
2022-08-24T08:20:59.685Z,32.90
2022-08-24T08:23:48.296Z,33.20
2022-08-24T08:26:25.475Z,33.60
2022-08-24T08:29:15.234Z,34.00
2022-08-24T08:31:44.016Z,34.40
2022-08-24T08:34:13.057Z,34.80
2022-08-24T08:36:42.750Z,35.20
2022-08-24T08:39:19.251Z,35.40
2022-08-24T08:42:14.239Z,35.80
2022-08-24T08:44:58.087Z,35.80
2022-08-24T08:51:00.022Z,36.40
2022-08-24T08:54:09.125Z,36.80
2022-08-24T08:56:50.617Z,37.40
2022-08-24T08:59:34.762Z,37.80
2022-08-24T09:02:18.958Z,38.20
2022-08-24T09:05:24.057Z,38.40
2022-08-24T09:08:04.571Z,38.50
2022-08-24T09:10:51.812Z,38.90
2022-08-24T09:13:45.736Z,38.70
2022-08-24T09:16:43.764Z,39.00
2022-08-24T09:19:32.004Z,38.80
2022-08-24T09:22:15.942Z,39.00
2022-08-24T09:25:04.715Z,39.40
2022-08-24T09:27:54.131Z,39.60
2022-08-24T09:30:27.516Z,39.40
2022-08-24T09:33:10.541Z,39.50
2022-08-24T09:36:10.117Z,40.00
2022-08-24T09:38:59.793Z,40.60
2022-08-24T09:42:15.845Z,41.00
2022-08-24T09:45:13.163Z,40.70
2022-08-24T09:48:21.159Z,41.00
2022-08-24T09:51:38.482Z,40.90
2022-08-24T09:54:53.790Z,40.40
2022-08-24T09:58:01.537Z,41.00
2022-08-24T10:00:35.676Z,41.70
2022-08-24T10:03:21.752Z,42.20
2022-08-24T10:06:29.027Z,42.40
2022-08-24T10:09:15.870Z,43.30
2022-08-24T10:11:56.518Z,43.60
2022-08-24T10:14:46.534Z,43.30
2022-08-24T10:17:22.933Z,43.20
2022-08-24T10:20:06.568Z,44.20
2022-08-24T10:22:59.918Z,44.20
2022-08-24T10:25:37.030Z,43.60
2022-08-24T10:28:38.296Z,43.00
2022-08-24T10:31:13.073Z,42.70
2022-08-24T10:34:02.273Z,42.90
2022-08-24T10:37:17.878Z,42.90
2022-08-24T10:40:13.867Z,43.20
2022-08-24T10:43:23.941Z,43.10
2022-08-24T10:46:49.627Z,43.50
2022-08-24T10:50:17.519Z,42.90
2022-08-24T10:53:26.117Z,42.60
2022-08-24T10:56:09.455Z,42.20
2022-08-24T10:58:59.749Z,41.80
2022-08-24T11:01:32.198Z,42.00
2022-08-24T11:04:07.285Z,41.90
2022-08-24T11:06:38.759Z,41.70
2022-08-24T11:09:14.807Z,41.60
2022-08-24T11:11:48.030Z,41.60
2022-08-24T11:14:29.016Z,41.30
2022-08-24T11:17:17.933Z,41.20
2022-08-24T11:19:46.792Z,41.00
2022-08-24T11:22:36.942Z,40.70
2022-08-24T11:25:16.626Z,40.80
2022-08-24T11:27:49.435Z,41.30
2022-08-24T11:30:26.609Z,41.00
2022-08-24T11:32:57.433Z,40.80
2022-08-24T11:35:29.169Z,40.60
2022-08-24T11:38:06.778Z,40.90
2022-08-24T11:40:42.456Z,41.20
2022-08-24T11:43:26.446Z,41.60
2022-08-24T11:46:09.213Z,41.80
2022-08-24T11:48:53.265Z,42.30
2022-08-24T11:51:34.779Z,42.60
2022-08-24T11:54:10.310Z,42.30
2022-08-24T11:56:47.394Z,42.30
2022-08-24T11:59:28.910Z,42.20
2022-08-24T12:02:05.822Z,42.30
2022-08-24T12:04:51.068Z,42.50
2022-08-24T12:07:44.568Z,42.90
2022-08-24T12:10:32.647Z,42.70
2022-08-24T12:13:09.190Z,42.30
2022-08-24T12:15:51.802Z,42.40
2022-08-24T12:18:30.927Z,42.80
2022-08-24T12:21:00.020Z,42.20
2022-08-24T12:23:40.348Z,41.60
2022-08-24T12:26:13.692Z,41.30
2022-08-24T12:28:52.370Z,41.10
2022-08-24T12:31:35.988Z,40.60
2022-08-24T12:34:11.525Z,40.30
2022-08-24T12:36:52.098Z,40.10
2022-08-24T12:39:27.519Z,39.80
2022-08-24T12:42:06.559Z,39.90
2022-08-24T12:44:55.530Z,40.10
2022-08-24T12:47:29.659Z,40.30
2022-08-24T12:50:06.396Z,40.00
2022-08-24T12:53:20.926Z,39.40
2022-08-24T12:56:08.789Z,38.70
2022-08-24T12:59:21.396Z,38.40
2022-08-24T13:02:04.033Z,38.30
2022-08-24T13:04:40.300Z,38.40
2022-08-24T13:07:14.951Z,38.60
2022-08-24T13:09:46.510Z,38.70
2022-08-24T13:12:54.342Z,38.20
2022-08-24T13:16:06.308Z,38.30
2022-08-24T13:19:13.925Z,38.40
2022-08-24T13:21:51.792Z,38.10
2022-08-24T13:25:01.956Z,37.30
2022-08-24T13:28:06.848Z,36.70
2022-08-24T13:31:06.578Z,36.50
2022-08-24T13:33:43.924Z,36.70
2022-08-24T13:37:02.674Z,36.30
2022-08-24T13:40:08.041Z,36.10
2022-08-24T13:43:05.858Z,36.10
2022-08-24T13:45:40.039Z,36.20
2022-08-24T13:48:46.958Z,36.30
2022-08-24T13:51:30.465Z,36.10
2022-08-24T13:54:23.326Z,35.90
2022-08-24T13:57:13.227Z,36.20
2022-08-24T14:00:03.236Z,36.30
2022-08-24T14:02:49.611Z,36.60
2022-08-24T14:05:31.343Z,36.70
2022-08-24T14:08:16.964Z,36.80
2022-08-24T14:11:01.272Z,36.60
2022-08-24T14:13:45.050Z,36.50
2022-08-24T14:17:19.328Z,36.30
2022-08-24T14:20:04.468Z,36.00
2022-08-24T14:22:37.723Z,35.80
2022-08-24T14:25:20.974Z,35.60
2022-08-24T14:28:31.147Z,35.60
2022-08-24T14:31:21.608Z,35.70
2022-08-24T14:34:02.383Z,36.00
2022-08-24T14:36:47.728Z,36.10
2022-08-24T14:39:31.628Z,36.30
2022-08-24T14:42:13.115Z,36.40
2022-08-24T14:44:58.352Z,36.10
2022-08-24T14:47:42.383Z,36.20
2022-08-24T14:50:17.286Z,36.40
2022-08-24T14:53:08.795Z,36.20
2022-08-24T14:55:45.904Z,35.90
2022-08-24T14:58:31.554Z,35.80
2022-08-24T15:01:44.640Z,35.30
2022-08-24T15:04:37.497Z,35.00
2022-08-24T15:07:26.719Z,35.00
2022-08-24T15:09:57.237Z,34.90
2022-08-24T15:12:36.389Z,34.80
2022-08-24T15:15:13.143Z,34.90
2022-08-24T15:17:56.326Z,35.00
2022-08-24T15:20:49.998Z,35.00
2022-08-24T15:23:26.338Z,34.90
2022-08-24T15:26:00.370Z,34.50
2022-08-24T15:28:34.469Z,34.00
2022-08-24T15:31:08.435Z,33.70
2022-08-24T15:33:54.969Z,33.30
2022-08-24T15:36:23.877Z,33.00
2022-08-24T15:38:52.380Z,32.90
2022-08-24T15:41:23.079Z,32.90
2022-08-24T15:43:59.733Z,32.80
2022-08-24T15:46:30.546Z,32.50
2022-08-24T15:49:07.074Z,32.40
2022-08-24T15:51:47.749Z,32.30
2022-08-24T15:54:33.944Z,31.90
2022-08-24T15:57:05.229Z,31.60
2022-08-24T15:59:48.754Z,31.30
2022-08-24T16:02:26.032Z,31.10
2022-08-24T16:05:11.226Z,30.80
2022-08-24T16:08:13.235Z,30.70
2022-08-24T16:10:45.227Z,30.50
2022-08-24T16:13:27.035Z,30.20
2022-08-24T16:16:03.289Z,30.00
2022-08-24T16:18:48.739Z,29.90
2022-08-24T16:21:24.951Z,29.80
2022-08-24T16:24:01.834Z,29.80
2022-08-24T16:26:33.477Z,29.60
2022-08-24T16:29:02.130Z,29.60
2022-08-24T16:31:51.734Z,29.60
2022-08-24T16:34:30.169Z,29.50
2022-08-24T16:37:00.305Z,29.50
2022-08-24T16:39:29.034Z,29.50
2022-08-24T16:42:01.153Z,29.60
2022-08-24T16:44:36.914Z,29.50
2022-08-24T16:47:05.810Z,29.50
2022-08-24T16:49:34.457Z,29.40
2022-08-24T16:52:05.275Z,29.30
2022-08-24T16:54:34.374Z,29.30
2022-08-24T16:57:12.790Z,29.20
2022-08-24T16:59:43.859Z,29.10
2022-08-24T17:02:12.629Z,29.10
2022-08-24T17:04:42.582Z,29.00
2022-08-24T17:07:17.164Z,28.90
2022-08-24T17:09:47.602Z,28.80
2022-08-24T17:12:16.434Z,28.70
2022-08-24T17:14:45.863Z,28.60
2022-08-24T17:17:17.458Z,28.50
2022-08-24T17:19:52.484Z,28.50
2022-08-24T17:22:23.506Z,28.40
2022-08-24T17:24:52.801Z,28.30
2022-08-24T17:27:25.615Z,28.20
2022-08-24T17:29:54.194Z,28.10
2022-08-24T17:32:23.123Z,28.00
2022-08-24T17:34:51.365Z,28.00
2022-08-24T17:37:21.317Z,27.90
2022-08-24T17:39:55.264Z,27.80
2022-08-24T17:42:49.675Z,27.70
2022-08-24T17:45:14.115Z,27.60
2022-08-24T17:47:44.047Z,27.50
2022-08-24T17:50:14.313Z,27.40
2022-08-24T17:52:44.952Z,27.40
2022-08-24T17:55:17.063Z,27.30
2022-08-24T17:57:52.318Z,27.20
2022-08-24T18:00:20.631Z,27.10
2022-08-24T18:02:48.795Z,27.00
2022-08-24T18:05:17.073Z,27.00
2022-08-24T18:07:54.021Z,26.90
2022-08-24T18:10:26.063Z,26.80
2022-08-24T18:12:55.009Z,26.80
2022-08-24T18:15:35.709Z,26.70
2022-08-24T18:18:08.371Z,26.60
2022-08-24T18:20:40.947Z,26.60
2022-08-24T18:23:11.917Z,26.50
2022-08-24T18:25:47.645Z,26.40
2022-08-24T18:28:17.167Z,26.30
2022-08-24T18:30:46.572Z,26.20
2022-08-24T18:33:17.440Z,26.10
2022-08-24T18:35:47.543Z,25.90
2022-08-24T18:38:17.980Z,25.80
2022-08-24T18:40:52.937Z,25.70
2022-08-24T18:43:25.173Z,25.60
2022-08-24T18:45:54.642Z,25.50
2022-08-24T18:48:23.547Z,25.40
2022-08-24T18:50:53.087Z,25.30
2022-08-24T18:53:26.800Z,25.20
2022-08-24T18:55:55.367Z,25.10
2022-08-24T18:58:23.687Z,25.00
2022-08-24T19:00:52.333Z,24.90
2022-08-24T19:03:22.519Z,24.80
2022-08-24T19:05:50.695Z,24.70
2022-08-24T19:08:18.989Z,24.60
2022-08-24T19:10:48.805Z,24.60
2022-08-24T19:13:18.392Z,24.50
2022-08-24T19:15:48.491Z,24.40
2022-08-24T19:18:18.707Z,24.30
2022-08-24T19:20:50.003Z,24.20
2022-08-24T19:23:22.376Z,24.10
2022-08-24T19:25:54.474Z,24.00
2022-08-24T19:28:23.594Z,23.90
2022-08-24T19:30:55.816Z,23.90
2022-08-24T19:33:27.210Z,23.80
2022-08-24T19:35:57.238Z,23.70
2022-08-24T19:38:26.472Z,23.60
2022-08-24T19:40:58.104Z,23.60
2022-08-24T19:43:27.555Z,23.50
2022-08-24T19:46:03.924Z,23.40
2022-08-24T19:48:33.549Z,23.40
2022-08-24T19:51:03.398Z,23.30
2022-08-24T19:53:33.548Z,23.20
2022-08-24T19:56:03.979Z,23.10
2022-08-24T19:58:41.472Z,23.10
2022-08-24T20:01:14.252Z,23.00
2022-08-24T20:03:42.599Z,22.90
2022-08-24T20:06:11.723Z,22.80
2022-08-24T20:08:41.111Z,22.80
2022-08-24T20:11:11.122Z,22.70
2022-08-24T20:13:39.572Z,22.70
2022-08-24T20:16:11.156Z,22.60
2022-08-24T20:18:40.628Z,22.60
2022-08-24T20:21:10.131Z,22.50
2022-08-24T20:23:38.484Z,22.40
2022-08-24T20:26:10.185Z,22.30
2022-08-24T20:28:46.058Z,22.20
2022-08-24T20:31:15.918Z,22.10
2022-08-24T20:33:44.263Z,22.10
2022-08-24T20:36:24.186Z,22.00
2022-08-24T20:38:53.102Z,22.00
2022-08-24T20:41:23.098Z,21.90
2022-08-24T20:43:51.371Z,21.80
2022-08-24T20:46:19.802Z,21.80
2022-08-24T20:48:52.446Z,21.70
2022-08-24T20:51:24.246Z,21.60
2022-08-24T20:53:52.433Z,21.60
2022-08-24T20:56:30.923Z,21.50
2022-08-24T20:59:04.371Z,21.50
2022-08-24T21:01:33.402Z,21.40
2022-08-24T21:04:05.226Z,21.40
2022-08-24T21:06:35.226Z,21.40
2022-08-24T21:09:05.243Z,21.30
2022-08-24T21:11:35.493Z,21.30
2022-08-24T21:14:06.030Z,21.20
2022-08-24T21:16:39.566Z,21.10
2022-08-24T21:19:08.137Z,21.00
2022-08-24T21:21:39.629Z,21.00
2022-08-24T21:24:11.022Z,21.00
2022-08-24T21:26:41.018Z,20.90
2022-08-24T21:29:11.606Z,20.80
2022-08-24T21:31:39.996Z,20.70
2022-08-24T21:34:26.607Z,20.60
2022-08-24T21:36:56.201Z,20.50
2022-08-24T21:39:24.417Z,20.50
2022-08-24T21:41:54.759Z,20.50
2022-08-24T21:44:23.033Z,20.40
2022-08-24T21:46:52.445Z,20.40
2022-08-24T21:49:21.202Z,20.30
2022-08-24T21:51:49.529Z,20.30
2022-08-24T21:54:17.840Z,20.20
2022-08-24T21:56:46.096Z,20.20
2022-08-24T21:59:15.816Z,20.10
2022-08-24T22:01:44.505Z,20.10
2022-08-24T22:04:13.351Z,20.10
2022-08-24T22:06:41.576Z,20.00
2022-08-24T22:09:09.803Z,20.00
2022-08-24T22:11:38.023Z,19.90
2022-08-24T22:14:06.737Z,19.90
2022-08-24T22:16:37.099Z,19.80
2022-08-24T22:19:06.163Z,19.80
2022-08-24T22:21:36.299Z,19.70
2022-08-24T22:24:05.428Z,19.70
2022-08-24T22:26:34.205Z,19.70
2022-08-24T22:29:02.555Z,19.60
2022-08-24T22:31:33.675Z,19.60
2022-08-24T22:34:06.997Z,19.60
2022-08-24T22:36:36.053Z,19.50
2022-08-24T22:39:06.132Z,19.50
2022-08-24T22:41:34.513Z,19.40
2022-08-24T22:44:21.693Z,19.40
2022-08-24T22:46:52.487Z,19.30
2022-08-24T22:49:25.025Z,19.30
2022-08-24T22:51:54.099Z,19.30
2022-08-24T22:54:23.105Z,19.20
2022-08-24T22:56:54.486Z,19.20
2022-08-24T22:59:26.584Z,19.10
2022-08-24T23:01:57.824Z,19.10
2022-08-24T23:04:31.982Z,19.00
2022-08-24T23:07:00.947Z,19.00
2022-08-24T23:09:38.159Z,19.00
2022-08-24T23:12:16.439Z,18.90
2022-08-24T23:14:44.898Z,18.90
2022-08-24T23:17:13.458Z,18.90
2022-08-24T23:20:00.661Z,18.80
2022-08-24T23:22:41.520Z,18.80
2022-08-24T23:25:14.089Z,18.70
2022-08-24T23:27:46.522Z,18.70
2022-08-24T23:30:17.656Z,18.60
2022-08-24T23:32:46.173Z,18.60
2022-08-24T23:35:14.460Z,18.60
2022-08-24T23:37:44.039Z,18.60
2022-08-24T23:40:13.598Z,18.50
2022-08-24T23:42:41.847Z,18.50
2022-08-24T23:45:12.427Z,18.50
2022-08-24T23:47:41.760Z,18.40
2022-08-24T23:50:11.540Z,18.40
2022-08-24T23:52:41.085Z,18.30
2022-08-24T23:55:20.995Z,18.30
2022-08-24T23:57:51.677Z,18.30
